sensor_id;sensor_type;location;lat;lon;timestamp;pressure;altitude;pressure_sealevel;temperature;humidity
57799;BME280;43626;53.866;30.298;2023-02-11T00:01:37;1030.9;;;-1.2;63.2
57799;BME280;43626;53.866;30.298;2023-02-11T00:06:29;1030.9;;;-1.2;63.2
57799;BME280;43626;53.866;30.298;2023-02-11T00:11:25;1030.8;;;-1.2;63.3
57799;BME280;43626;53.866;30.298;2023-02-11T00:16:51;1030.8;;;-1.2;63.2
57799;BME280;43626;53.866;30.298;2023-02-11T00:21:16;1030.8;;;-1.2;63
57799;BME280;43626;53.866;30.298;2023-02-11T00:27:03;1030.8;;;-1.2;62.8
57799;BME280;43626;53.866;30.298;2023-02-11T00:31:41;1030.8;;;-1.2;62.9
57799;BME280;43626;53.866;30.298;2023-02-11T00:36:41;1030.7;;;-1.2;62.9
57799;BME280;43626;53.866;30.298;2023-02-11T00:41:29;1030.6;;;-1.2;63
57799;BME280;43626;53.866;30.298;2023-02-11T00:46:57;1030.6;;;-1.3;63.1
57799;BME280;43626;53.866;30.298;2023-02-11T00:51:15;1030.5;;;-1.3;63.2
57799;BME280;43626;53.866;30.298;2023-02-11T00:56:41;1030.4;;;-1.3;63.2
57799;BME280;43626;53.866;30.298;2023-02-11T01:01:39;1030.3;;;-1.4;63.6
57799;BME280;43626;53.866;30.298;2023-02-11T01:06:51;1030.4;;;-1.4;64.1
57799;BME280;43626;53.866;30.298;2023-02-11T01:11:53;1030.4;;;-1.5;64.5
57799;BME280;43626;53.866;30.298;2023-02-11T01:16:41;1030.3;;;-1.5;65
57799;BME280;43626;53.866;30.298;2023-02-11T01:22:03;1030.3;;;-1.5;65
57799;BME280;43626;53.866;30.298;2023-02-11T01:26:27;1030.2;;;-1.5;65.2
57799;BME280;43626;53.866;30.298;2023-02-11T01:31:49;1030.3;;;-1.5;65.2
57799;BME280;43626;53.866;30.298;2023-02-11T01:37:01;1030.2;;;-1.5;65.2
57799;BME280;43626;53.866;30.298;2023-02-11T01:41:51;1030.2;;;-1.5;65.3
57799;BME280;43626;53.866;30.298;2023-02-11T01:46:39;1030.2;;;-1.5;65.5
57799;BME280;43626;53.866;30.298;2023-02-11T01:52:06;1030.2;;;-1.5;65.6
57799;BME280;43626;53.866;30.298;2023-02-11T01:56:25;1030;;;-1.5;65.8
57799;BME280;43626;53.866;30.298;2023-02-11T02:01:25;1030;;;-1.5;66.4
57799;BME280;43626;53.866;30.298;2023-02-11T02:06:56;1030;;;-1.5;66.6
57799;BME280;43626;53.866;30.298;2023-02-11T02:11:53;1030;;;-1.5;67.1
57799;BME280;43626;53.866;30.298;2023-02-11T02:17:05;1029.9;;;-1.6;67.6
57799;BME280;43626;53.866;30.298;2023-02-11T02:22:00;1029.7;;;-1.5;67.9
57799;BME280;43626;53.866;30.298;2023-02-11T02:27:55;1029.7;;;-1.5;67.7
57799;BME280;43626;53.866;30.298;2023-02-11T02:31:20;1029.7;;;-1.4;67.5
57799;BME280;43626;53.866;30.298;2023-02-11T02:36:53;1029.7;;;-1.4;67.5
57799;BME280;43626;53.866;30.298;2023-02-11T02:41:29;1029.6;;;-1.3;67.3
57799;BME280;43626;53.866;30.298;2023-02-11T02:47:03;1029.4;;;-1.3;67.2
57799;BME280;43626;53.866;30.298;2023-02-11T02:51:56;1029.3;;;-1.2;67.2
57799;BME280;43626;53.866;30.298;2023-02-11T02:57:07;1029.2;;;-1.2;67.2
57799;BME280;43626;53.866;30.298;2023-02-11T03:02:04;1029.1;;;-1.2;67.2
57799;BME280;43626;53.866;30.298;2023-02-11T03:06:51;1029;;;-1.1;67
57799;BME280;43626;53.866;30.298;2023-02-11T03:11:51;1029;;;-1.1;66.8
57799;BME280;43626;53.866;30.298;2023-02-11T03:16:29;1028.8;;;-1;66.5
57799;BME280;43626;53.866;30.298;2023-02-11T03:21:51;1028.7;;;-1;66.3
57799;BME280;43626;53.866;30.298;2023-02-11T03:26:16;1028.6;;;-0.9;66.3
57799;BME280;43626;53.866;30.298;2023-02-11T03:31:53;1028.5;;;-0.9;66.2
57799;BME280;43626;53.866;30.298;2023-02-11T03:36:25;1028.4;;;-0.9;66.2
57799;BME280;43626;53.866;30.298;2023-02-11T03:42:05;1028.3;;;-0.9;66.1
57799;BME280;43626;53.866;30.298;2023-02-11T03:46:43;1028.2;;;-0.9;66.1
57799;BME280;43626;53.866;30.298;2023-02-11T03:52:03;1028.1;;;-0.9;66.1
57799;BME280;43626;53.866;30.298;2023-02-11T03:56:53;1028.1;;;-1;66.3
57799;BME280;43626;53.866;30.298;2023-02-11T04:01:53;1028;;;-1;66.4
57799;BME280;43626;53.866;30.298;2023-02-11T04:06:15;1028;;;-1;66.7
57799;BME280;43626;53.866;30.298;2023-02-11T04:12:05;1027.9;;;-1.1;66.8
57799;BME280;43626;53.866;30.298;2023-02-11T04:17:05;1027.8;;;-1.1;66.9
57799;BME280;43626;53.866;30.298;2023-02-11T04:21:29;1027.8;;;-1;66.9
57799;BME280;43626;53.866;30.298;2023-02-11T04:26:39;1027.8;;;-1;66.9
57799;BME280;43626;53.866;30.298;2023-02-11T04:31:25;1027.7;;;-1;66.8
57799;BME280;43626;53.866;30.298;2023-02-11T04:37:05;1027.6;;;-0.9;66.8
57799;BME280;43626;53.866;30.298;2023-02-11T04:41:41;1027.5;;;-0.9;66.8
57799;BME280;43626;53.866;30.298;2023-02-11T04:46:51;1027.5;;;-0.9;66.8
57799;BME280;43626;53.866;30.298;2023-02-11T04:51:41;1027.4;;;-0.9;67.1
57799;BME280;43626;53.866;30.298;2023-02-11T04:56:29;1027.3;;;-0.9;67.3
57799;BME280;43626;53.866;30.298;2023-02-11T05:01:39;1027.1;;;-0.9;67.4
57799;BME280;43626;53.866;30.298;2023-02-11T05:06:29;1027;;;-0.9;67.5
57799;BME280;43626;53.866;30.298;2023-02-11T05:12:05;1027;;;-0.8;67.5
57799;BME280;43626;53.866;30.298;2023-02-11T05:16:15;1027;;;-0.8;67.6
57799;BME280;43626;53.866;30.298;2023-02-11T05:21:23;1026.9;;;-0.7;67.5
57799;BME280;43626;53.866;30.298;2023-02-11T05:27:05;1026.8;;;-0.7;67.3
57799;BME280;43626;53.866;30.298;2023-02-11T05:32:01;1026.6;;;-0.7;67.4
57799;BME280;43626;53.866;30.298;2023-02-11T05:36:41;1026.5;;;-0.6;67.7
57799;BME280;43626;53.866;30.298;2023-02-11T05:42:03;1026.4;;;-0.6;67.8
57799;BME280;43626;53.866;30.298;2023-02-11T05:47:03;1026.3;;;-0.6;67.8
57799;BME280;43626;53.866;30.298;2023-02-11T05:51:29;1026.2;;;-0.6;68.1
57799;BME280;43626;53.866;30.298;2023-02-11T05:56:15;1026.1;;;-0.6;68.5
57799;BME280;43626;53.866;30.298;2023-02-11T06:01:29;1025.9;;;-0.6;68.8
57799;BME280;43626;53.866;30.298;2023-02-11T06:06:39;1025.8;;;-0.6;69
57799;BME280;43626;53.866;30.298;2023-02-11T06:12:05;1025.7;;;-0.6;69.1
57799;BME280;43626;53.866;30.298;2023-02-11T06:16:15;1025.7;;;-0.6;69.2
57799;BME280;43626;53.866;30.298;2023-02-11T06:22:03;1025.6;;;-0.5;68.9
57799;BME280;43626;53.866;30.298;2023-02-11T06:26:25;1025.5;;;-0.4;68.8
57799;BME280;43626;53.866;30.298;2023-02-11T06:31:23;1025.4;;;-0.3;68.9
57799;BME280;43626;53.866;30.298;2023-02-11T06:36:29;1025.3;;;-0.2;68.7
57799;BME280;43626;53.866;30.298;2023-02-11T06:42:03;1025.3;;;-0.1;68.5
57799;BME280;43626;53.866;30.298;2023-02-11T06:46:31;1025.2;;;-0.1;68.3
57799;BME280;43626;53.866;30.298;2023-02-11T06:51:27;1025.1;;;0;68.3
57799;BME280;43626;53.866;30.298;2023-02-11T06:56:29;1025.1;;;0;68.2
57799;BME280;43626;53.866;30.298;2023-02-11T07:01:47;1025;;;0;68.1
57799;BME280;43626;53.866;30.298;2023-02-11T07:06:51;1024.9;;;0;68.1
57799;BME280;43626;53.866;30.298;2023-02-11T07:11:39;1024.8;;;0.1;68
57799;BME280;43626;53.866;30.298;2023-02-11T07:16:55;1024.6;;;0.1;67.9
57799;BME280;43626;53.866;30.298;2023-02-11T07:21:29;1024.5;;;0.2;67.8
57799;BME280;43626;53.866;30.298;2023-02-11T07:26:16;1024.4;;;0.2;67.8
57799;BME280;43626;53.866;30.298;2023-02-11T07:31:29;1024.3;;;0.3;67.6
57799;BME280;43626;53.866;30.298;2023-02-11T07:36:29;1024.2;;;0.4;67.5
57799;BME280;43626;53.866;30.298;2023-02-11T07:41:31;1024.1;;;0.5;67.4
57799;BME280;43626;53.866;30.298;2023-02-11T07:46:51;1024;;;0.6;67.3
57799;BME280;43626;53.866;30.298;2023-02-11T07:51:29;1023.9;;;0.8;67
57799;BME280;43626;53.866;30.298;2023-02-11T07:56:53;1023.8;;;0.8;66.7
57799;BME280;43626;53.866;30.298;2023-02-11T08:02:05;1023.7;;;0.9;66.5
57799;BME280;43626;53.866;30.298;2023-02-11T08:06:39;1023.6;;;1;66.1
57799;BME280;43626;53.866;30.298;2023-02-11T08:12:03;1023.4;;;1.1;65.8
57799;BME280;43626;53.866;30.298;2023-02-11T08:16:29;1023.3;;;1;65.8
57799;BME280;43626;53.866;30.298;2023-02-11T08:21:51;1023.2;;;1.1;65.9
57799;BME280;43626;53.866;30.298;2023-02-11T08:26:41;1023.1;;;1;65.9
57799;BME280;43626;53.866;30.298;2023-02-11T08:32:01;1023;;;1;65.9
57799;BME280;43626;53.866;30.298;2023-02-11T08:36:15;1022.9;;;1;66
57799;BME280;43626;53.866;30.298;2023-02-11T08:42:03;1022.8;;;1.1;66
57799;BME280;43626;53.866;30.298;2023-02-11T08:46:37;1022.6;;;1.2;65.9
57799;BME280;43626;53.866;30.298;2023-02-11T08:52:03;1022.6;;;1.2;65.9
57799;BME280;43626;53.866;30.298;2023-02-11T08:57:03;1022.6;;;1.3;65.9
57799;BME280;43626;53.866;30.298;2023-02-11T09:02:01;1022.5;;;1.2;66
57799;BME280;43626;53.866;30.298;2023-02-11T09:06:41;1022.4;;;1.1;66.2
57799;BME280;43626;53.866;30.298;2023-02-11T09:11:15;1022.3;;;1.1;66.3
57799;BME280;43626;53.866;30.298;2023-02-11T09:16:47;1022.3;;;1.2;66.2
57799;BME280;43626;53.866;30.298;2023-02-11T09:21:25;1022;;;1.2;66.4
57799;BME280;43626;53.866;30.298;2023-02-11T09:26:49;1021.7;;;1.1;66.3
57799;BME280;43626;53.866;30.298;2023-02-11T09:31:37;1021.5;;;1.2;66.4
57799;BME280;43626;53.866;30.298;2023-02-11T09:37:05;1021;;;1.2;66.4
57799;BME280;43626;53.866;30.298;2023-02-11T09:41:47;1020.9;;;1.2;66.5
57799;BME280;43626;53.866;30.298;2023-02-11T09:47:03;1020.9;;;1.3;66.4
57799;BME280;43626;53.866;30.298;2023-02-11T09:51:53;1020.8;;;1.4;66.2
57799;BME280;43626;53.866;30.298;2023-02-11T09:56:53;1020.8;;;1.4;66.1
57799;BME280;43626;53.866;30.298;2023-02-11T10:01:27;1020.7;;;1.4;66
57799;BME280;43626;53.866;30.298;2023-02-11T10:06:19;1020.6;;;1.4;65.9
57799;BME280;43626;53.866;30.298;2023-02-11T10:11:52;1020.5;;;1.4;65.9
57799;BME280;43626;53.866;30.298;2023-02-11T10:16:18;1020.5;;;1.4;66
57799;BME280;43626;53.866;30.298;2023-02-11T10:21:54;1020.4;;;1.4;65.9
57799;BME280;43626;53.866;30.298;2023-02-11T10:26:41;1020.4;;;1.5;65.9
57799;BME280;43626;53.866;30.298;2023-02-11T10:32:05;1020.2;;;1.5;65.8
57799;BME280;43626;53.866;30.298;2023-02-11T10:36:41;1020.1;;;1.5;65.8
57799;BME280;43626;53.866;30.298;2023-02-11T10:41:51;1020;;;1.4;66
57799;BME280;43626;53.866;30.298;2023-02-11T10:46:51;1019.9;;;1.5;66.1
57799;BME280;43626;53.866;30.298;2023-02-11T10:51:56;1019.8;;;1.5;66
57799;BME280;43626;53.866;30.298;2023-02-11T10:56:19;1019.7;;;1.5;66
57799;BME280;43626;53.866;30.298;2023-02-11T11:01:15;1019.5;;;1.5;66.1
57799;BME280;43626;53.866;30.298;2023-02-11T11:06:51;1019.5;;;1.5;66.2
57799;BME280;43626;53.866;30.298;2023-02-11T11:11:31;1019.3;;;1.6;66.4
57799;BME280;43626;53.866;30.298;2023-02-11T11:16:50;1019.1;;;1.5;66.7
57799;BME280;43626;53.866;30.298;2023-02-11T11:21:41;1019;;;1.5;67.3
57799;BME280;43626;53.866;30.298;2023-02-11T11:27:03;1018.9;;;1.5;67.7
57799;BME280;43626;53.866;30.298;2023-02-11T11:31:45;1018.8;;;1.5;68.2
57799;BME280;43626;53.866;30.298;2023-02-11T11:36:47;1018.8;;;1.5;68.3
57799;BME280;43626;53.866;30.298;2023-02-11T11:41:52;1018.6;;;1.6;68.2
57799;BME280;43626;53.866;30.298;2023-02-11T11:46:15;1018.5;;;1.6;68.2
57799;BME280;43626;53.866;30.298;2023-02-11T11:51:37;1018.4;;;1.6;68.1
57799;BME280;43626;53.866;30.298;2023-02-11T11:56:30;1018.3;;;1.6;68
57799;BME280;43626;53.866;30.298;2023-02-11T12:02:03;1018.1;;;1.6;67.9
57799;BME280;43626;53.866;30.298;2023-02-11T12:06:54;1018;;;1.7;67.9
57799;BME280;43626;53.866;30.298;2023-02-11T12:11:44;1018;;;1.6;68.1
57799;BME280;43626;53.866;30.298;2023-02-11T12:17:04;1017.9;;;1.6;68.4
57799;BME280;43626;53.866;30.298;2023-02-11T12:22:08;1017.8;;;1.6;68.6
57799;BME280;43626;53.866;30.298;2023-02-11T12:26:55;1017.6;;;1.6;68.8
57799;BME280;43626;53.866;30.298;2023-02-11T12:32:03;1017.5;;;1.6;68.9
57799;BME280;43626;53.866;30.298;2023-02-11T12:37:05;1017.4;;;1.6;69
57799;BME280;43626;53.866;30.298;2023-02-11T12:41:39;1017.4;;;1.6;69
57799;BME280;43626;53.866;30.298;2023-02-11T12:46:39;1017.3;;;1.6;68.9
57799;BME280;43626;53.866;30.298;2023-02-11T12:51:27;1017.2;;;1.7;68.9
57799;BME280;43626;53.866;30.298;2023-02-11T12:56:42;1017.2;;;1.7;68.9
57799;BME280;43626;53.866;30.298;2023-02-11T13:01:49;1017.1;;;1.7;68.9
57799;BME280;43626;53.866;30.298;2023-02-11T13:06:54;1016.9;;;1.7;68.9
57799;BME280;43626;53.866;30.298;2023-02-11T13:12:03;1016.9;;;1.7;69.1
57799;BME280;43626;53.866;30.298;2023-02-11T13:16:28;1016.8;;;1.6;69.4
57799;BME280;43626;53.866;30.298;2023-02-11T13:21:32;1016.7;;;1.6;69.6
57799;BME280;43626;53.866;30.298;2023-02-11T13:26:30;1016.6;;;1.6;69.9
57799;BME280;43626;53.866;30.298;2023-02-11T13:31:52;1016.5;;;1.6;70.1
57799;BME280;43626;53.866;30.298;2023-02-11T13:36:16;1016.4;;;1.6;70.4
57799;BME280;43626;53.866;30.298;2023-02-11T13:41:30;1016.4;;;1.6;70.4
57799;BME280;43626;53.866;30.298;2023-02-11T13:47:06;1016.3;;;1.6;70.3
57799;BME280;43626;53.866;30.298;2023-02-11T13:51:51;1016.2;;;1.6;70.1
57799;BME280;43626;53.866;30.298;2023-02-11T13:57:35;1016.1;;;1.6;70.2
57799;BME280;43626;53.866;30.298;2023-02-11T14:01:40;1016;;;1.6;70.3
57799;BME280;43626;53.866;30.298;2023-02-11T14:07:34;1016;;;1.5;71.1
57799;BME280;43626;53.866;30.298;2023-02-11T14:11:48;1015.9;;;1.5;71.2
57799;BME280;43626;53.866;30.298;2023-02-11T14:21:16;1015.8;;;1.5;71.1
57799;BME280;43626;53.866;30.298;2023-02-11T14:26:52;1015.8;;;1.5;71.2
57799;BME280;43626;53.866;30.298;2023-02-11T14:31:25;1015.8;;;1.4;71.1
57799;BME280;43626;53.866;30.298;2023-02-11T14:37:09;1015.8;;;1.4;71.3
57799;BME280;43626;53.866;30.298;2023-02-11T14:42:06;1015.8;;;1.4;71.4
57799;BME280;43626;53.866;30.298;2023-02-11T14:47:05;1015.7;;;1.4;71.6
57799;BME280;43626;53.866;30.298;2023-02-11T14:52:05;1015.7;;;1.3;72.1
57799;BME280;43626;53.866;30.298;2023-02-11T14:57:08;1015.6;;;1.3;72.1
57799;BME280;43626;53.866;30.298;2023-02-11T15:02:01;1015.5;;;1.3;72.2
57799;BME280;43626;53.866;30.298;2023-02-11T15:06:25;1015.4;;;1.3;72.3
57799;BME280;43626;53.866;30.298;2023-02-11T15:11:51;1015.3;;;1.4;72.2
57799;BME280;43626;53.866;30.298;2023-02-11T15:16:29;1015.3;;;1.4;72
57799;BME280;43626;53.866;30.298;2023-02-11T15:21:53;1015.2;;;1.4;72
57799;BME280;43626;53.866;30.298;2023-02-11T15:26:25;1015.2;;;1.4;72
57799;BME280;43626;53.866;30.298;2023-02-11T15:32:03;1015.2;;;1.4;72
57799;BME280;43626;53.866;30.298;2023-02-11T15:36:53;1015.1;;;1.4;71.9
57799;BME280;43626;53.866;30.298;2023-02-11T15:42:19;1015.1;;;1.4;71.9
57799;BME280;43626;53.866;30.298;2023-02-11T15:47:07;1015;;;1.3;72.1
57799;BME280;43626;53.866;30.298;2023-02-11T15:51:53;1015;;;1.2;72.7
57799;BME280;43626;53.866;30.298;2023-02-11T15:56:39;1015;;;1.3;72.6
57799;BME280;43626;53.866;30.298;2023-02-11T16:01:15;1014.9;;;1.3;72.5
57799;BME280;43626;53.866;30.298;2023-02-11T16:06:51;1014.8;;;1.3;72.5
57799;BME280;43626;53.866;30.298;2023-02-11T16:11:31;1014.9;;;1.4;72.4
57799;BME280;43626;53.866;30.298;2023-02-11T16:16:51;1014.8;;;1.4;72.2
57799;BME280;43626;53.866;30.298;2023-02-11T16:21:15;1014.8;;;1.4;72.2
57799;BME280;43626;53.866;30.298;2023-02-11T16:27:03;1014.9;;;1.4;72.4
57799;BME280;43626;53.866;30.298;2023-02-11T16:31:15;1014.9;;;1.3;72.5
57799;BME280;43626;53.866;30.298;2023-02-11T16:37:05;1014.9;;;1.3;72.8
57799;BME280;43626;53.866;30.298;2023-02-11T16:41:51;1014.9;;;1.4;72.8
57799;BME280;43626;53.866;30.298;2023-02-11T16:46:53;1014.9;;;1.4;72.8
57799;BME280;43626;53.866;30.298;2023-02-11T16:51:39;1014.8;;;1.4;72.7
57799;BME280;43626;53.866;30.298;2023-02-11T16:56:15;1014.8;;;1.5;72.7
57799;BME280;43626;53.866;30.298;2023-02-11T17:01:45;1014.8;;;1.4;72.6
57799;BME280;43626;53.866;30.298;2023-02-11T17:06:15;1014.8;;;1.5;72.6
57799;BME280;43626;53.866;30.298;2023-02-11T17:11:39;1014.8;;;1.5;72.4
57799;BME280;43626;53.866;30.298;2023-02-11T17:16:41;1014.8;;;1.5;72.5
57799;BME280;43626;53.866;30.298;2023-02-11T17:22:05;1014.8;;;1.5;72.5
57799;BME280;43626;53.866;30.298;2023-02-11T17:26:41;1014.7;;;1.4;72.7
57799;BME280;43626;53.866;30.298;2023-02-11T17:31:45;1014.9;;;1.4;73
57799;BME280;43626;53.866;30.298;2023-02-11T17:36:53;1014.9;;;1.4;73.1
57799;BME280;43626;53.866;30.298;2023-02-11T17:41:15;1014.9;;;1.5;73
57799;BME280;43626;53.866;30.298;2023-02-11T17:46:41;1014.9;;;1.5;72.8
57799;BME280;43626;53.866;30.298;2023-02-11T17:51:26;1015;;;1.5;72.9
57799;BME280;43626;53.866;30.298;2023-02-11T17:57:03;1015.1;;;1.6;72.8
57799;BME280;43626;53.866;30.298;2023-02-11T18:01:15;1015.1;;;1.6;72.8
57799;BME280;43626;53.866;30.298;2023-02-11T18:06:15;1015.1;;;1.6;72.6
57799;BME280;43626;53.866;30.298;2023-02-11T18:12:03;1015.2;;;1.6;72.6
57799;BME280;43626;53.866;30.298;2023-02-11T18:16:53;1015.2;;;1.6;72.7
57799;BME280;43626;53.866;30.298;2023-02-11T18:21:41;1015.3;;;1.6;72.7
57799;BME280;43626;53.866;30.298;2023-02-11T18:27:05;1015.4;;;1.6;72.8
57799;BME280;43626;53.866;30.298;2023-02-11T18:31:49;1015.5;;;1.6;72.9
57799;BME280;43626;53.866;30.298;2023-02-11T18:36:15;1015.6;;;1.6;73.1
57799;BME280;43626;53.866;30.298;2023-02-11T18:41:53;1015.7;;;1.6;73.3
57799;BME280;43626;53.866;30.298;2023-02-11T18:46:39;1015.8;;;1.6;73.4
57799;BME280;43626;53.866;30.298;2023-02-11T18:51:29;1015.8;;;1.6;73.4
57799;BME280;43626;53.866;30.298;2023-02-11T18:56:51;1015.9;;;1.7;73.4
57799;BME280;43626;53.866;30.298;2023-02-11T19:01:41;1016;;;1.7;73.3
57799;BME280;43626;53.866;30.298;2023-02-11T19:07:03;1016;;;1.7;73.2
57799;BME280;43626;53.866;30.298;2023-02-11T19:12:05;1016.1;;;1.8;73.2
57799;BME280;43626;53.866;30.298;2023-02-11T19:16:41;1016.3;;;1.8;73
57799;BME280;43626;53.866;30.298;2023-02-11T19:22:05;1016.3;;;1.9;72.9
57799;BME280;43626;53.866;30.298;2023-02-11T19:27:03;1016.5;;;1.9;72.9
57799;BME280;43626;53.866;30.298;2023-02-11T19:31:29;1016.6;;;1.9;72.9
57799;BME280;43626;53.866;30.298;2023-02-11T19:36:51;1016.7;;;1.9;73
57799;BME280;43626;53.866;30.298;2023-02-11T19:41:15;1016.9;;;1.8;72.9
57799;BME280;43626;53.866;30.298;2023-02-11T19:46:26;1017.1;;;1.8;72.9
57799;BME280;43626;53.866;30.298;2023-02-11T19:51:51;1017.2;;;1.8;72.8
57799;BME280;43626;53.866;30.298;2023-02-11T19:56:29;1017.4;;;1.6;72.9
57799;BME280;43626;53.866;30.298;2023-02-11T20:01:59;1017.6;;;1.5;72.7
57799;BME280;43626;53.866;30.298;2023-02-11T20:06:53;1017.8;;;1.4;72
57799;BME280;43626;53.866;30.298;2023-02-11T20:12:03;1017.9;;;1.3;71.5
57799;BME280;43626;53.866;30.298;2023-02-11T20:16:29;1018;;;1.3;71.2
57799;BME280;43626;53.866;30.298;2023-02-11T20:21:51;1018.2;;;1.2;70.3
57799;BME280;43626;53.866;30.298;2023-02-11T20:26:15;1018.4;;;1;69.8
57799;BME280;43626;53.866;30.298;2023-02-11T20:31:15;1018.6;;;0.8;69.6
57799;BME280;43626;53.866;30.298;2023-02-11T20:36:15;1018.8;;;0.7;69.6
57799;BME280;43626;53.866;30.298;2023-02-11T20:41:51;1019.1;;;0.6;70
57799;BME280;43626;53.866;30.298;2023-02-11T20:47:05;1019.3;;;0.5;69.7
57799;BME280;43626;53.866;30.298;2023-02-11T20:51:41;1019.4;;;0.4;68.9
57799;BME280;43626;53.866;30.298;2023-02-11T20:57:05;1019.5;;;0.4;68.2
57799;BME280;43626;53.866;30.298;2023-02-11T21:01:41;1019.8;;;0.4;67.8
57799;BME280;43626;53.866;30.298;2023-02-11T21:06:47;1019.9;;;0.3;67.6
57799;BME280;43626;53.866;30.298;2023-02-11T21:11:39;1020;;;0.3;67.6
57799;BME280;43626;53.866;30.298;2023-02-11T21:16:15;1020.2;;;0.2;67.7
57799;BME280;43626;53.866;30.298;2023-02-11T21:21:15;1020.5;;;0.1;65.9
57799;BME280;43626;53.866;30.298;2023-02-11T21:27:03;1020.6;;;0;63.9
57799;BME280;43626;53.866;30.298;2023-02-11T21:31:49;1020.8;;;-0.2;60.9
57799;BME280;43626;53.866;30.298;2023-02-11T21:37:05;1021.1;;;-0.3;57.8
57799;BME280;43626;53.866;30.298;2023-02-11T21:42:05;1021.1;;;-0.4;57.1
57799;BME280;43626;53.866;30.298;2023-02-11T21:46:53;1021.3;;;-0.5;56.6
57799;BME280;43626;53.866;30.298;2023-02-11T21:51:25;1021.5;;;-0.5;56.8
57799;BME280;43626;53.866;30.298;2023-02-11T21:56:25;1021.6;;;-0.5;57.1
57799;BME280;43626;53.866;30.298;2023-02-11T22:01:45;1021.7;;;-0.6;57.5
57799;BME280;43626;53.866;30.298;2023-02-11T22:06:16;1021.9;;;-0.6;58.1
57799;BME280;43626;53.866;30.298;2023-02-11T22:11:51;1022;;;-0.6;58.7
57799;BME280;43626;53.866;30.298;2023-02-11T22:16:15;1022.3;;;-0.7;59.1
57799;BME280;43626;53.866;30.298;2023-02-11T22:22:03;1022.4;;;-0.7;59.1
57799;BME280;43626;53.866;30.298;2023-02-11T22:26:16;1022.7;;;-0.9;58
57799;BME280;43626;53.866;30.298;2023-02-11T22:32:03;1022.9;;;-1.1;57.7
57799;BME280;43626;53.866;30.298;2023-02-11T22:36:53;1023;;;-1.2;57.8
57799;BME280;43626;53.866;30.298;2023-02-11T22:41:53;1023.2;;;-1.3;57.5
57799;BME280;43626;53.866;30.298;2023-02-11T22:46:39;1023.3;;;-1.4;57.7
57799;BME280;43626;53.866;30.298;2023-02-11T22:51:41;1023.4;;;-1.4;57.9
57799;BME280;43626;53.866;30.298;2023-02-11T22:56:49;1023.5;;;-1.4;58
57799;BME280;43626;53.866;30.298;2023-02-11T23:01:27;1023.7;;;-1.4;57.9
57799;BME280;43626;53.866;30.298;2023-02-11T23:06:51;1023.8;;;-1.4;58
57799;BME280;43626;53.866;30.298;2023-02-11T23:11:41;1024;;;-1.5;58
57799;BME280;43626;53.866;30.298;2023-02-11T23:17:05;1024;;;-1.5;58.2
57799;BME280;43626;53.866;30.298;2023-02-11T23:21:28;1024.2;;;-1.4;58.4
57799;BME280;43626;53.866;30.298;2023-02-11T23:26:49;1024.3;;;-1.5;58.3
57799;BME280;43626;53.866;30.298;2023-02-11T23:31:39;1024.5;;;-1.5;57.7
57799;BME280;43626;53.866;30.298;2023-02-11T23:36:15;1024.6;;;-1.6;57.9
57799;BME280;43626;53.866;30.298;2023-02-11T23:41:41;1024.7;;;-1.6;58.2
57799;BME280;43626;53.866;30.298;2023-02-11T23:46:29;1024.8;;;-1.5;57.9
57799;BME280;43626;53.866;30.298;2023-02-11T23:52:05;1024.9;;;-1.5;57.8
57799;BME280;43626;53.866;30.298;2023-02-11T23:56:16;1025.1;;;-1.5;57.6
